Time;durP1;ratioP1;P1;durP2;ratioP2;P2;SDS_P1;SDS_P2;PMS_P1;PMS_P2;Temp;Humidity;BMP_temperature;BMP_pressure;BME280_temperature;BME280_humidity;BME280_pressure;Samples;Min_cycle;Max_cycle;Signal;HPM_P1;HPM_P2
2022/01/20 00:00:33;;;;;;;8.30;4.13;;;;;;;1.97;96.71;99487.88;4991420;28;20197;-60
2022/01/20 00:03:10;;;;;;;8.07;4.40;;;;;;;1.97;96.39;99491.28;4991179;28;20185;-60
2022/01/20 00:05:59;;;;;;;7.07;4.57;;;;;;;1.94;97.13;99491.44;4991099;28;20269;-59
2022/01/20 00:08:34;;;;;;;7.10;4.20;;;;;;;1.97;97.03;99491.28;4991231;28;20221;-59
2022/01/20 00:27:35;;;;;;;7.10;3.83;;;;;;;1.96;97.63;99487.03;4991043;28;20211;-59
2022/01/20 00:30:28;;;;;;;5.93;3.80;;;;;;;1.95;97.32;99485.38;4989642;28;20211;-59
2022/01/20 00:33:02;;;;;;;5.33;3.40;;;;;;;1.98;97.96;99490.38;4989897;28;20195;-59
2022/01/20 00:35:31;;;;;;;5.67;3.63;;;;;;;1.97;97.47;99491.28;4989065;28;20229;-59
2022/01/20 00:37:57;;;;;;;4.87;3.43;;;;;;;2.01;97.69;99497.13;4991017;28;20694;-58
2022/01/20 00:40:24;;;;;;;5.40;3.40;;;;;;;1.97;98.55;99501.56;4990155;28;20193;-59
2022/01/20 00:42:52;;;;;;;4.93;3.23;;;;;;;1.98;98.76;99503.25;5004961;28;20209;-59
2022/01/20 00:45:19;;;;;;;4.93;2.97;;;;;;;2.01;98.21;99510.00;4987998;28;20204;-59
2022/01/20 00:47:46;;;;;;;4.77;3.13;;;;;;;1.98;97.76;99505.81;4990144;28;20213;-59
2022/01/20 00:50:13;;;;;;;4.60;2.77;;;;;;;1.92;97.44;99524.13;4990733;28;20193;-59
2022/01/20 00:52:40;;;;;;;5.23;3.47;;;;;;;1.88;97.97;99518.31;4990489;28;20211;-59
2022/01/20 00:55:08;;;;;;;3.53;2.63;;;;;;;1.86;99.66;99525.28;4978583;28;20196;-59
2022/01/20 00:57:35;;;;;;;4.03;2.70;;;;;;;1.88;99.34;99531.19;4990658;28;20678;-60
2022/01/20 01:00:06;;;;;;;4.57;3.03;;;;;;;1.86;100.00;99517.56;4989017;28;20565;-60
2022/01/20 01:02:35;;;;;;;4.87;2.83;;;;;;;1.88;100.00;99525.19;4987446;28;20193;-59
2022/01/20 01:05:02;;;;;;;4.10;2.77;;;;;;;1.89;100.00;99521.72;4986850;28;20192;-60
2022/01/20 01:07:45;;;;;;;4.50;2.70;;;;;;;1.93;100.00;99533.53;4991246;28;20287;-60
2022/01/20 01:10:13;;;;;;;2.70;2.20;;;;;;;1.91;100.00;99525.03;4991400;28;20396;-59
2022/01/20 01:12:47;;;;;;;3.43;2.50;;;;;;;1.92;100.00;99526.72;4993254;28;20668;-59
2022/01/20 01:15:20;;;;;;;3.70;2.33;;;;;;;1.99;99.80;99529.84;4993984;28;20684;-59
2022/01/20 01:20:56;;;;;;;4.30;2.40;;;;;;;1.97;100.00;99537.63;4993024;28;20228;-59
2022/01/20 01:23:21;;;;;;;3.90;2.67;;;;;;;1.98;100.00;99539.28;4992801;28;20288;-59
2022/01/20 01:25:48;;;;;;;4.40;2.43;;;;;;;2.03;100.00;99539.09;4994046;28;20191;-58
2022/01/20 01:28:16;;;;;;;4.33;2.80;;;;;;;1.99;99.90;99530.66;4993119;28;20652;-59
2022/01/20 01:31:10;;;;;;;5.40;2.73;;;;;;;2.04;100.00;99546.72;4989531;28;20197;-59
2022/01/20 01:33:41;;;;;;;3.03;2.20;;;;;;;2.00;100.00;99549.53;4992092;28;20272;-60
2022/01/20 01:36:12;;;;;;;5.80;2.50;;;;;;;1.98;100.00;99546.19;4991106;28;20231;-60
2022/01/20 01:38:41;;;;;;;4.40;2.77;;;;;;;1.95;100.00;99543.78;4997272;28;20213;-60
2022/01/20 01:41:12;;;;;;;4.60;2.70;;;;;;;1.96;100.00;99545.44;5000704;28;20195;-60
2022/01/20 01:43:42;;;;;;;4.80;2.60;;;;;;;1.94;100.00;99542.94;5002659;28;20743;-58
2022/01/20 01:46:12;;;;;;;3.00;2.00;;;;;;;1.94;99.61;99537.78;4998464;28;20211;-58
2022/01/20 01:48:45;;;;;;;2.97;1.93;;;;;;;1.92;100.00;99537.00;4996335;28;20289;-59
2022/01/20 01:51:12;;;;;;;3.60;1.87;;;;;;;1.92;100.00;99540.44;4995121;28;20197;-59
2022/01/20 01:53:42;;;;;;;3.17;1.90;;;;;;;1.90;100.00;99533.69;4996069;28;20240;-58
2022/01/20 01:56:10;;;;;;;3.00;2.10;;;;;;;1.91;100.00;99531.03;4989789;28;20282;-59
2022/01/20 01:58:38;;;;;;;2.97;1.67;;;;;;;1.89;100.00;99532.84;5001605;28;20229;-59
2022/01/20 02:01:13;;;;;;;2.73;1.70;;;;;;;1.89;100.00;99530.28;5000901;28;20224;-59
2022/01/20 02:03:46;;;;;;;2.23;1.70;;;;;;;1.90;100.00;99529.38;5000451;28;20205;-59
2022/01/20 02:06:41;;;;;;;1.87;1.30;;;;;;;1.86;100.00;99524.44;5000503;28;20224;-58
2022/01/20 02:09:23;;;;;;;2.53;1.40;;;;;;;1.83;100.00;99522.84;4998261;28;20205;-58
2022/01/20 02:20:14;;;;;;;3.43;1.67;;;;;;;1.84;100.00;99513.38;4997931;28;20194;-59
2022/01/20 02:22:50;;;;;;;2.37;1.53;;;;;;;1.79;100.00;99516.19;4998748;28;20662;-59
2022/01/20 02:25:28;;;;;;;2.73;1.83;;;;;;;1.74;100.00;99516.38;4993986;28;20199;-59
2022/01/20 02:27:57;;;;;;;3.27;2.10;;;;;;;1.77;100.00;99531.69;4997659;28;20588;-58
2022/01/20 02:30:26;;;;;;;2.13;1.63;;;;;;;1.76;100.00;99524.03;4998531;28;20450;-58
2022/01/20 02:32:54;;;;;;;2.30;1.70;;;;;;;1.75;100.00;99532.66;5000243;28;20186;-59
2022/01/20 02:35:24;;;;;;;3.13;2.13;;;;;;;1.75;100.00;99536.06;4998361;28;20205;-59
2022/01/20 02:37:57;;;;;;;3.33;2.10;;;;;;;1.76;100.00;99530.00;4996028;28;20629;-58
2022/01/20 02:44:49;;;;;;;2.93;2.30;;;;;;;1.77;100.00;99534.25;4999310;28;20290;-59
2022/01/20 02:46:06;;;;;;;3.13;2.33;;;;;;;1.74;100.00;99538.72;4958758;28;20208;-58
2022/01/20 02:48:33;;;;;;;4.40;2.70;;;;;;;1.75;100.00;99535.25;4999866;28;20225;-58
2022/01/20 02:51:02;;;;;;;3.37;2.30;;;;;;;1.71;100.00;99526.00;4998409;28;20216;-58
2022/01/20 02:53:29;;;;;;;4.33;2.77;;;;;;;1.70;100.00;99532.88;5000085;28;20545;-58
2022/01/20 02:55:56;;;;;;;4.73;3.00;;;;;;;1.72;100.00;99523.34;4997633;28;20798;-59
2022/01/20 02:58:23;;;;;;;3.27;2.33;;;;;;;1.76;100.00;99513.75;4994330;28;20237;-59
2022/01/20 03:00:50;;;;;;;4.90;3.30;;;;;;;1.75;100.00;99518.03;4998294;28;20216;-59
2022/01/20 03:03:17;;;;;;;5.37;2.87;;;;;;;1.77;100.00;99521.38;4989618;28;20553;-59
2022/01/20 03:05:44;;;;;;;3.67;2.47;;;;;;;1.78;100.00;99532.53;4989260;28;20202;-59
2022/01/20 03:08:14;;;;;;;3.97;2.67;;;;;;;1.76;100.00;99524.88;4989894;28;20210;-59
2022/01/20 03:10:41;;;;;;;5.10;3.10;;;;;;;1.78;100.00;99527.38;4990117;28;20218;-59
2022/01/20 03:13:11;;;;;;;5.13;2.83;;;;;;;1.79;100.00;99513.59;4990238;28;20572;-59
2022/01/20 03:15:37;;;;;;;5.63;3.10;;;;;;;1.76;100.00;99516.31;4988975;28;20302;-59
2022/01/20 03:18:05;;;;;;;6.10;3.00;;;;;;;1.76;100.00;99522.28;4991421;28;20646;-59
2022/01/20 03:20:33;;;;;;;3.13;1.70;;;;;;;1.72;100.00;99528.50;4989897;28;20189;-58
2022/01/20 03:23:00;;;;;;;0.00;0.00;;;;;;;1.76;100.00;99521.47;4989995;28;20289;-58
2022/01/20 03:25:30;;;;;;;0.00;0.00;;;;;;;1.76;100.00;99529.19;4989602;28;20197;-58
2022/01/20 03:27:57;;;;;;;0.00;0.00;;;;;;;1.76;100.00;99526.63;4989600;28;20315;-58
2022/01/20 03:30:25;;;;;;;0.00;0.00;;;;;;;1.77;100.00;99525.72;4989433;28;20619;-58
2022/01/20 03:32:53;;;;;;;0.00;0.00;;;;;;;1.76;100.00;99519.72;4990499;28;20232;-58
2022/01/20 03:35:21;;;;;;;0.00;0.00;;;;;;;1.75;100.00;99512.91;4989903;28;20247;-58
2022/01/20 03:38:05;;;;;;;0.00;0.00;;;;;;;1.79;100.00;99502.47;4990350;28;20462;-58
2022/01/20 03:40:36;;;;;;;0.00;0.00;;;;;;;1.77;100.00;99494.81;4989426;28;20205;-58
2022/01/20 03:43:03;;;;;;;0.00;0.00;;;;;;;1.74;100.00;99498.34;4990226;28;20186;-58
2022/01/20 03:45:30;;;;;;;0.00;0.00;;;;;;;1.78;100.00;99506.78;4989487;28;20569;-58
2022/01/20 03:48:07;;;;;;;0.00;0.00;;;;;;;1.77;100.00;99505.13;4990113;28;20213;-58
2022/01/20 03:53:15;;;;;;;0.00;0.00;;;;;;;1.71;100.00;99508.81;4978883;28;20658;-58
2022/01/20 03:55:45;;;;;;;0.00;0.00;;;;;;;1.70;100.00;99499.41;4988779;28;20225;-58
2022/01/20 03:58:15;;;;;;;0.00;0.00;;;;;;;1.70;100.00;99501.16;4986538;28;20197;-59
2022/01/20 04:00:44;;;;;;;0.00;0.00;;;;;;;1.72;100.00;99514.81;4989690;28;20216;-59
2022/01/20 04:03:21;;;;;;;0.00;0.00;;;;;;;1.72;100.00;99522.53;4989772;28;20189;-59
2022/01/20 04:05:59;;;;;;;0.00;0.00;;;;;;;1.69;100.00;99526.06;4989561;28;20220;-59
2022/01/20 04:08:48;;;;;;;0.00;0.00;;;;;;;1.70;100.00;99526.91;4990981;28;20211;-59
2022/01/20 04:11:18;;;;;;;0.00;0.00;;;;;;;1.67;100.00;99524.47;4989582;28;20189;-59
2022/01/20 04:13:45;;;;;;;0.00;0.00;;;;;;;1.70;100.00;99519.19;4989014;28;20202;-59
2022/01/20 04:16:32;;;;;;;0.00;0.00;;;;;;;1.70;100.00;99524.34;4989393;28;20218;-59
2022/01/20 04:19:00;;;;;;;0.00;0.00;;;;;;;1.71;100.00;99519.09;4989490;28;20221;-59
2022/01/20 04:21:28;;;;;;;0.00;0.00;;;;;;;1.75;100.00;99518.03;4989398;28;20196;-59
2022/01/20 04:23:57;;;;;;;0.00;0.00;;;;;;;1.73;100.00;99516.47;4990691;28;20661;-59
2022/01/20 04:26:26;;;;;;;0.00;0.00;;;;;;;1.79;100.00;99526.47;4988181;28;20217;-59
2022/01/20 04:28:56;;;;;;;0.00;0.00;;;;;;;1.78;100.00;99537.69;4988975;28;20212;-58
2022/01/20 04:31:24;;;;;;;0.00;0.00;;;;;;;1.81;100.00;99536.69;4989421;28;20201;-57
2022/01/20 04:33:51;;;;;;;0.00;0.00;;;;;;;1.78;100.00;99529.97;4988771;28;20209;-58
2022/01/20 04:36:18;;;;;;;0.00;0.00;;;;;;;1.81;100.00;99527.25;4988863;28;20244;-58
2022/01/20 04:38:46;;;;;;;0.00;0.00;;;;;;;1.78;100.00;99524.81;4989565;28;20213;-59
2022/01/20 04:41:13;;;;;;;0.00;0.00;;;;;;;1.81;100.00;99523.81;4987999;28;20200;-58
2022/01/20 04:43:42;;;;;;;0.00;0.00;;;;;;;1.81;100.00;99529.81;4985225;28;20211;-58
2022/01/20 04:46:15;;;;;;;0.00;0.00;;;;;;;1.84;100.00;99534.81;4988686;28;20300;-58
2022/01/20 04:48:50;;;;;;;0.00;0.00;;;;;;;1.89;100.00;99529.44;4990510;28;20568;-59
2022/01/20 04:59:34;;;;;;;0.00;0.00;;;;;;;1.90;100.00;99531.94;4980853;28;20239;-58
2022/01/20 05:02:00;;;;;;;0.00;0.00;;;;;;;1.91;100.00;99532.78;4988944;28;20193;-59
2022/01/20 05:04:49;;;;;;;0.00;0.00;;;;;;;1.94;100.00;99542.09;4988813;28;20604;-58
2022/01/20 05:07:28;;;;;;;0.00;0.00;;;;;;;1.91;100.00;99541.34;4989067;28;20217;-59
2022/01/20 05:09:57;;;;;;;0.00;0.00;;;;;;;1.92;100.00;99544.75;4989116;28;20194;-59
2022/01/20 05:12:30;;;;;;;0.00;0.00;;;;;;;1.89;100.00;99543.16;4989022;28;20538;-59
2022/01/20 05:14:58;;;;;;;0.00;0.00;;;;;;;1.86;100.00;99543.31;4990057;28;20357;-59
2022/01/20 05:17:25;;;;;;;0.00;0.00;;;;;;;1.83;100.00;99543.44;4988700;28;20260;-58
2022/01/20 05:19:56;;;;;;;0.00;0.00;;;;;;;1.82;100.00;99534.06;4988737;28;20216;-59
2022/01/20 05:22:23;;;;;;;0.00;0.00;;;;;;;1.82;100.00;99531.47;4989056;28;20412;-58
2022/01/20 05:24:58;;;;;;;0.00;0.00;;;;;;;1.80;100.00;99538.44;4988763;28;20227;-58
2022/01/20 05:27:25;;;;;;;0.00;0.00;;;;;;;1.82;100.00;99528.91;4988821;28;20220;-58
2022/01/20 05:29:55;;;;;;;0.00;0.00;;;;;;;1.76;100.00;99529.19;4989072;28;20188;-58
2022/01/20 05:32:24;;;;;;;0.00;0.00;;;;;;;1.70;100.00;99532.88;4987054;28;20204;-58
2022/01/20 05:34:51;;;;;;;0.00;0.00;;;;;;;1.72;100.00;99525.09;4988020;28;20189;-58
2022/01/20 05:37:19;;;;;;;0.00;0.00;;;;;;;1.71;100.00;99526.00;4987456;28;20304;-58
2022/01/20 05:39:47;;;;;;;0.00;0.00;;;;;;;1.72;100.00;99525.09;4991824;28;20576;-58
2022/01/20 05:42:18;;;;;;;0.00;0.00;;;;;;;1.69;100.00;99512.38;4988579;28;20189;-58
2022/01/20 05:45:14;;;;;;;0.00;0.00;;;;;;;1.74;100.00;99511.22;4981487;28;20190;-58
2022/01/20 05:47:46;;;;;;;0.00;0.00;;;;;;;1.70;100.00;99514.84;4988325;28;20320;-58
2022/01/20 05:50:15;;;;;;;0.00;0.00;;;;;;;1.69;100.00;99510.63;4989642;28;20185;-59
2022/01/20 05:52:43;;;;;;;0.00;0.00;;;;;;;1.65;100.00;99526.28;4989479;28;20196;-58
2022/01/20 05:55:15;;;;;;;0.00;0.00;;;;;;;1.63;100.00;99531.50;4992048;28;20190;-58
2022/01/20 05:57:43;;;;;;;0.00;0.00;;;;;;;1.66;100.00;99541.66;4992690;28;20221;-59
2022/01/20 06:00:14;;;;;;;0.00;0.00;;;;;;;1.70;100.00;99537.19;4981749;28;20212;-59
2022/01/20 06:05:36;;;;;;;0.00;0.00;;;;;;;1.75;100.00;99533.50;4991570;28;20212;-59
2022/01/20 06:08:03;;;;;;;0.00;0.00;;;;;;;1.78;100.00;99542.81;4992148;28;20201;-58
2022/01/20 06:10:31;;;;;;;0.00;0.00;;;;;;;1.81;100.00;99547.84;4991415;28;20208;-58
2022/01/20 06:13:06;;;;;;;0.00;0.00;;;;;;;1.80;100.00;99548.75;4993370;28;20212;-59
2022/01/20 06:15:33;;;;;;;0.00;0.00;;;;;;;1.86;100.00;99558.75;4991480;28;20194;-58
2022/01/20 06:18:01;;;;;;;0.00;0.00;;;;;;;1.86;100.00;99570.78;4991873;28;20224;-58
2022/01/20 06:20:29;;;;;;;0.00;0.00;;;;;;;1.88;100.00;99569.81;4989731;28;20224;-59
2022/01/20 06:22:56;;;;;;;0.00;0.00;;;;;;;1.94;100.00;99573.81;4991076;28;20200;-59
2022/01/20 06:25:23;;;;;;;0.00;0.00;;;;;;;1.94;100.00;99571.25;4992646;28;20624;-59
2022/01/20 06:27:51;;;;;;;0.00;0.00;;;;;;;1.96;100.00;99555.75;4991315;28;20255;-59
2022/01/20 06:30:18;;;;;;;0.00;0.00;;;;;;;1.97;100.00;99558.22;4991617;28;20185;-59
2022/01/20 06:32:45;;;;;;;0.00;0.00;;;;;;;1.98;100.00;99569.38;4991761;28;20221;-59
2022/01/20 06:35:25;;;;;;;0.00;0.00;;;;;;;2.03;100.00;99568.25;4990630;28;20774;-59
2022/01/20 06:37:52;;;;;;;0.00;0.00;;;;;;;2.06;100.00;99567.28;4992680;28;20217;-59
2022/01/20 06:40:19;;;;;;;0.00;0.00;;;;;;;2.08;100.00;99559.47;4991211;28;20208;-59
2022/01/20 06:42:47;;;;;;;0.00;0.00;;;;;;;2.10;100.00;99552.50;4991364;28;20197;-59
2022/01/20 06:45:16;;;;;;;0.00;0.00;;;;;;;2.14;100.00;99548.88;4989432;28;20197;-59
2022/01/20 06:47:46;;;;;;;0.00;0.00;;;;;;;2.06;100.00;99542.34;4990550;28;20225;-60
2022/01/20 06:50:15;;;;;;;0.00;0.00;;;;;;;2.02;100.00;99542.56;4989705;28;20284;-59
2022/01/20 06:52:47;;;;;;;0.00;0.00;;;;;;;1.99;100.00;99542.72;4990534;28;20193;-59
2022/01/20 06:55:15;;;;;;;0.00;0.00;;;;;;;1.94;100.00;99542.94;4989309;28;20189;-59
2022/01/20 06:57:42;;;;;;;0.00;0.00;;;;;;;1.96;100.00;99563.47;4988012;28;20659;-60
2022/01/20 07:00:12;;;;;;;0.00;0.00;;;;;;;1.96;100.00;99563.47;4988024;28;20283;-60
2022/01/20 07:02:39;;;;;;;0.00;0.00;;;;;;;1.95;100.00;99552.31;4986483;28;20207;-60
2022/01/20 07:05:07;;;;;;;0.00;0.00;;;;;;;1.96;100.00;99558.31;4989396;28;20197;-60
2022/01/20 07:07:34;;;;;;;0.00;0.00;;;;;;;1.92;100.00;99575.63;4988486;28;20714;-59
2022/01/20 07:10:09;;;;;;;0.00;0.00;;;;;;;1.88;100.00;99584.41;4991900;28;20217;-60
2022/01/20 07:12:44;;;;;;;0.00;0.00;;;;;;;1.90;100.00;99572.31;4989654;28;20756;-60
2022/01/20 07:15:12;;;;;;;0.00;0.00;;;;;;;1.99;100.00;99571.88;4989895;28;20756;-59
2022/01/20 07:17:40;;;;;;;0.00;0.00;;;;;;;1.98;100.00;99577.09;4990386;28;20596;-59
2022/01/20 07:20:08;;;;;;;0.00;0.00;;;;;;;1.99;100.00;99589.91;4990191;28;20237;-59
2022/01/20 07:22:46;;;;;;;0.00;0.00;;;;;;;2.01;100.00;99589.84;4990197;28;20270;-59
2022/01/20 07:25:17;;;;;;;0.00;0.00;;;;;;;2.04;100.00;99594.84;4990115;28;20193;-59
2022/01/20 07:27:53;;;;;;;0.00;0.00;;;;;;;2.04;100.00;99602.56;4990565;28;20209;-59
2022/01/20 07:30:20;;;;;;;0.00;0.00;;;;;;;2.01;100.00;99603.53;4990548;28;20593;-59
2022/01/20 07:32:47;;;;;;;0.00;0.00;;;;;;;2.07;100.00;99617.88;4990428;28;20668;-59
2022/01/20 07:35:19;;;;;;;0.00;0.00;;;;;;;2.08;100.00;99629.84;4990085;28;20201;-59
2022/01/20 07:37:46;;;;;;;0.00;0.00;;;;;;;2.13;100.00;99630.44;4991761;28;20209;-59
2022/01/20 07:40:14;;;;;;;0.00;0.00;;;;;;;2.17;100.00;99633.72;4990064;28;20260;-59
2022/01/20 07:42:42;;;;;;;0.00;0.00;;;;;;;2.20;100.00;99643.88;4993497;28;20580;-59
2022/01/20 07:45:21;;;;;;;0.00;0.00;;;;;;;2.29;100.00;99658.06;5011056;28;20258;-58
2022/01/20 07:48:07;;;;;;;0.00;0.00;;;;;;;2.31;100.00;99656.25;5007429;28;20214;-58
2022/01/20 07:50:35;;;;;;;0.00;0.00;;;;;;;2.34;100.00;99661.25;4990495;28;20189;-58
2022/01/20 07:53:02;;;;;;;0.00;0.00;;;;;;;2.38;100.00;99664.53;4986146;28;20197;-58
2022/01/20 07:55:29;;;;;;;0.00;0.00;;;;;;;2.32;100.00;99663.91;4978894;28;20240;-58
2022/01/20 07:57:57;;;;;;;0.00;0.00;;;;;;;2.33;100.00;99665.59;4984993;28;20239;-58
2022/01/20 08:00:28;;;;;;;0.00;0.00;;;;;;;2.36;99.88;99670.59;4985454;28;20224;-58
2022/01/20 08:02:58;;;;;;;0.00;0.00;;;;;;;2.39;100.00;99663.63;4988298;28;20712;-58
2022/01/20 08:05:35;;;;;;;0.00;0.00;;;;;;;2.42;100.00;99661.72;4989335;28;20247;-58
2022/01/20 08:08:02;;;;;;;0.00;0.00;;;;;;;2.44;99.75;99675.38;4991092;28;20185;-58
2022/01/20 08:10:30;;;;;;;0.00;0.00;;;;;;;2.49;100.00;99672.59;4989431;28;20421;-58
2022/01/20 08:12:58;;;;;;;0.00;0.00;;;;;;;2.44;99.61;99674.56;4989556;28;20194;-58
2022/01/20 08:15:29;;;;;;;0.00;0.00;;;;;;;2.47;100.00;99671.84;4988979;28;20212;-58
2022/01/20 08:18:06;;;;;;;0.00;0.00;;;;;;;2.45;99.25;99663.34;4989773;28;20205;-57
2022/01/20 08:20:35;;;;;;;0.00;0.00;;;;;;;2.47;99.28;99669.25;4987109;28;20228;-58
2022/01/20 08:23:05;;;;;;;0.00;0.00;;;;;;;2.38;99.93;99678.25;4988784;28;20192;-58
2022/01/20 08:25:34;;;;;;;0.00;0.00;;;;;;;2.45;99.67;99666.72;4987750;28;20194;-58
2022/01/20 08:28:03;;;;;;;0.00;0.00;;;;;;;2.45;99.50;99671.88;4988394;28;20201;-57
2022/01/20 08:30:34;;;;;;;0.00;0.00;;;;;;;2.46;100.00;99675.31;4989194;28;20824;-57
2022/01/20 08:33:02;;;;;;;0.00;0.00;;;;;;;2.43;99.13;99680.63;4989578;28;20201;-57
2022/01/20 08:35:40;;;;;;;0.00;0.00;;;;;;;2.50;98.98;99672.50;4989192;28;20600;-57
2022/01/20 08:38:10;;;;;;;0.00;0.00;;;;;;;2.53;99.01;99686.16;4989257;28;20209;-57
2022/01/20 08:40:39;;;;;;;0.00;0.00;;;;;;;2.53;97.58;99688.72;5001073;28;20207;-57
2022/01/20 08:43:08;;;;;;;0.00;0.00;;;;;;;2.64;95.59;99709.69;5001738;28;20263;-57
2022/01/20 08:45:43;;;;;;;0.00;0.00;;;;;;;2.58;98.61;99710.81;4987737;28;20251;-57
2022/01/20 08:48:12;;;;;;;0.00;0.00;;;;;;;2.57;97.56;99705.72;4997105;28;20201;-58
2022/01/20 08:51:14;;;;;;;0.00;0.00;;;;;;;2.54;97.77;99698.13;4928749;29;20191;-57
2022/01/20 08:53:52;;;;;;;0.00;0.00;;;;;;;2.53;97.70;99706.78;4994024;28;20615;-57
2022/01/20 08:56:23;;;;;;;0.00;0.00;;;;;;;2.49;97.79;99701.75;4987653;28;20221;-57
2022/01/20 08:58:51;;;;;;;0.00;0.00;;;;;;;2.47;98.33;99711.31;4988750;28;20189;-57
2022/01/20 09:01:18;;;;;;;0.00;0.00;;;;;;;2.40;98.27;99709.94;4985484;28;20206;-57
2022/01/20 09:03:47;;;;;;;0.00;0.00;;;;;;;2.56;96.99;99729.81;4979967;28;20279;-57
2022/01/20 09:06:14;;;;;;;0.00;0.00;;;;;;;2.57;97.10;99731.50;4988684;28;20209;-57
2022/01/20 09:08:49;;;;;;;0.00;0.00;;;;;;;2.69;96.37;99737.81;4988461;28;20246;-58
2022/01/20 09:11:19;;;;;;;0.00;0.00;;;;;;;2.73;96.04;99750.50;4988094;28;20665;-57
2022/01/20 09:16:29;;;;;;;0.00;0.00;;;;;;;2.56;96.44;99743.56;4955818;28;20220;-57
2022/01/20 09:19:10;;;;;;;0.00;0.00;;;;;;;2.54;96.60;99744.53;4988508;28;20220;-57
2022/01/20 09:21:39;;;;;;;0.00;0.00;;;;;;;2.61;96.30;99739.03;4987877;28;20221;-58
2022/01/20 09:24:07;;;;;;;0.00;0.00;;;;;;;2.56;96.39;99738.41;4987763;28;20259;-57
2022/01/20 09:26:34;;;;;;;0.00;0.00;;;;;;;2.54;97.75;99726.47;4988077;28;20566;-57
2022/01/20 09:29:04;;;;;;;0.00;0.00;;;;;;;2.48;97.93;99717.31;4991212;28;20208;-57
2022/01/20 09:31:37;;;;;;;0.00;0.00;;;;;;;2.54;96.57;99716.19;4990791;28;20200;-57
2022/01/20 09:34:07;;;;;;;14.13;6.03;;;;;;;2.58;96.97;99722.84;4988746;28;20196;-59
2022/01/20 09:36:36;;;;;;;15.40;6.90;;;;;;;2.58;96.65;99717.69;4991780;28;20209;-59
2022/01/20 09:39:04;;;;;;;21.40;7.40;;;;;;;2.66;96.97;99718.16;4991678;28;20193;-59
2022/01/20 09:41:46;;;;;;;17.07;6.73;;;;;;;2.53;95.98;99711.94;4988479;28;20221;-59
2022/01/20 09:44:13;;;;;;;0.00;0.00;;;;;;;2.51;96.39;99705.09;4988499;28;20194;-58
2022/01/20 09:46:42;;;;;;;0.00;0.00;;;;;;;2.51;96.99;99704.28;4972081;28;20609;-58
2022/01/20 09:49:18;;;;;;;0.00;0.00;;;;;;;2.55;95.67;99710.13;4972310;28;20201;-58
2022/01/20 09:51:44;;;;;;;0.00;0.00;;;;;;;2.57;96.15;99714.31;4987974;28;20610;-58
2022/01/20 09:54:15;;;;;;;0.00;0.00;;;;;;;2.53;96.72;99701.63;4972236;28;20197;-58
2022/01/20 09:56:48;;;;;;;0.00;0.00;;;;;;;2.47;95.33;99708.72;4991753;28;20252;-58
2022/01/20 09:59:18;;;;;;;0.00;0.00;;;;;;;2.50;96.28;99710.34;4991713;28;20193;-61
2022/01/20 10:01:47;;;;;;;0.00;0.00;;;;;;;2.51;95.57;99712.00;4997413;28;20201;-58
2022/01/20 10:04:23;;;;;;;0.00;0.00;;;;;;;2.59;96.01;99707.34;4991697;28;20573;-59
2022/01/20 10:06:58;;;;;;;0.00;0.00;;;;;;;2.71;95.57;99721.38;5000480;28;20800;-58
2022/01/20 10:09:33;;;;;;;0.00;0.00;;;;;;;2.76;93.97;99718.56;4998723;28;20201;-57
2022/01/20 10:12:21;;;;;;;0.00;0.00;;;;;;;2.64;95.88;99704.53;5001301;28;20263;-57
2022/01/20 10:15:08;;;;;;;0.00;0.00;;;;;;;2.82;95.56;99709.69;5002330;28;20189;-58
2022/01/20 10:18:07;;;;;;;0.00;0.00;;;;;;;2.82;94.06;99713.09;4981583;28;20200;-58
2022/01/20 10:20:36;;;;;;;0.00;0.00;;;;;;;2.91;94.17;99712.66;4993240;28;20213;-57
2022/01/20 10:23:13;;;;;;;0.00;0.00;;;;;;;2.99;92.70;99708.88;4997962;28;20198;-57
2022/01/20 10:26:04;;;;;;;0.00;0.00;;;;;;;2.99;93.27;99708.88;5001418;28;20242;-59
2022/01/20 10:28:53;;;;;;;0.00;0.00;;;;;;;3.03;92.08;99724.13;5001666;28;20202;-58
2022/01/20 10:31:35;;;;;;;0.00;0.00;;;;;;;3.03;92.82;99742.19;5000581;28;20182;-58
2022/01/20 10:34:05;;;;;;;0.00;0.00;;;;;;;2.89;93.57;99736.88;4991465;28;20280;-58
2022/01/20 10:36:37;;;;;;;0.00;0.00;;;;;;;2.80;93.40;99723.50;4991526;28;20559;-58
2022/01/20 10:39:30;;;;;;;0.00;0.00;;;;;;;2.80;93.02;99726.09;4993561;28;20193;-58
2022/01/20 10:42:03;;;;;;;0.00;0.00;;;;;;;2.74;94.86;99736.69;5010692;28;20217;-58
2022/01/20 10:44:41;;;;;;;0.00;0.00;;;;;;;2.81;94.84;99734.63;5011089;28;20196;-57
2022/01/20 10:47:13;;;;;;;0.00;0.00;;;;;;;2.75;94.57;99740.09;4988930;28;20218;-57
2022/01/20 10:49:44;;;;;;;0.00;0.00;;;;;;;4.28;100.00;99734.94;4990228;28;20252;-51
2022/01/20 10:52:13;;;;;;;15.93;7.10;;;;;;;4.92;90.63;99740.97;4991523;28;20203;-50
2022/01/20 10:54:42;;;;;;;16.30;7.50;;;;;;;4.59;84.46;99735.03;4988503;28;20198;-59
2022/01/20 10:57:15;;;;;;;0.00;0.00;;;;;;;3.71;87.94;99719.03;4982973;28;20263;-58
2022/01/20 10:59:51;;;;;;;0.00;0.00;;;;;;;3.12;91.79;99724.59;4991068;28;20229;-58
2022/01/20 11:02:23;;;;;;;0.00;0.00;;;;;;;3.14;92.25;99733.09;4981822;28;20216;-58
2022/01/20 11:04:52;;;;;;;0.00;0.00;;;;;;;3.01;92.69;99718.22;4983387;28;20225;-58
2022/01/20 11:07:19;;;;;;;0.00;0.00;;;;;;;3.05;93.31;99718.88;4987807;28;20304;-59
2022/01/20 11:09:55;;;;;;;0.00;0.00;;;;;;;2.99;94.00;99716.59;5005439;28;20284;-59
2022/01/20 11:12:46;;;;;;;0.00;0.00;;;;;;;2.93;94.03;99716.00;4990943;28;21019;-59
2022/01/20 11:15:29;;;;;;;0.00;0.00;;;;;;;3.05;92.71;99726.63;4990459;28;20682;-58
2022/01/20 11:17:57;;;;;;;0.00;0.00;;;;;;;3.03;92.84;99721.56;4990993;28;20293;-58
2022/01/20 11:20:32;;;;;;;0.00;0.00;;;;;;;3.01;94.54;99718.22;4990384;28;20590;-58
2022/01/20 11:23:03;;;;;;;0.00;0.00;;;;;;;3.08;94.00;99711.00;4990685;28;20221;-58
2022/01/20 11:25:37;;;;;;;0.00;0.00;;;;;;;3.03;93.99;99700.91;4990171;28;20217;-58
2022/01/20 11:28:30;;;;;;;0.13;0.00;;;;;;;3.02;94.32;99711.28;4990544;28;20665;-58
2022/01/20 11:31:10;;;;;;;0.00;0.00;;;;;;;2.89;94.46;99704.16;4990175;28;20197;-59
2022/01/20 11:33:42;;;;;;;0.00;0.00;;;;;;;2.93;94.94;99699.69;4990332;28;20201;-58
2022/01/20 11:36:23;;;;;;;0.00;0.00;;;;;;;2.92;95.32;99696.28;4991895;28;20205;-59
2022/01/20 11:38:50;;;;;;;0.00;0.00;;;;;;;2.88;95.88;99694.75;4991926;28;20785;-58
2022/01/20 11:41:20;;;;;;;0.00;0.00;;;;;;;2.87;95.89;99689.69;4991528;28;20205;-58
2022/01/20 11:43:49;;;;;;;0.00;0.00;;;;;;;2.91;95.10;99691.22;4991373;28;20256;-58
2022/01/20 11:46:19;;;;;;;0.00;0.00;;;;;;;2.90;95.71;99697.28;4991426;28;20213;-59
2022/01/20 11:48:51;;;;;;;0.00;0.00;;;;;;;2.86;96.12;99696.56;4991813;28;20553;-58
2022/01/20 11:51:19;;;;;;;0.00;0.00;;;;;;;2.91;96.92;99686.88;4991161;28;20288;-59
2022/01/20 11:53:56;;;;;;;0.00;0.00;;;;;;;2.92;96.68;99679.97;4991004;28;20193;-59
2022/01/20 11:56:30;;;;;;;0.00;0.00;;;;;;;2.94;97.09;99680.75;4989175;28;20224;-58
2022/01/20 11:58:57;;;;;;;0.00;0.00;;;;;;;3.00;97.26;99677.84;4990547;28;20665;-58
2022/01/20 12:01:27;;;;;;;0.00;0.00;;;;;;;2.93;96.66;99669.56;4991060;28;20235;-58
2022/01/20 12:03:54;;;;;;;0.00;0.00;;;;;;;2.89;97.35;99668.06;4989925;28;20189;-57
2022/01/20 12:06:42;;;;;;;0.00;0.00;;;;;;;2.91;96.52;99668.00;4980441;28;20228;-57
2022/01/20 12:09:17;;;;;;;0.00;0.00;;;;;;;2.92;96.66;99661.94;4991160;28;20642;-60
2022/01/20 12:11:46;;;;;;;0.00;0.00;;;;;;;3.00;97.64;99667.53;4991221;28;20259;-57
2022/01/20 12:14:13;;;;;;;0.00;0.00;;;;;;;2.98;97.04;99666.78;4990754;28;20248;-58
2022/01/20 12:16:41;;;;;;;27.53;9.60;;;;;;;2.97;97.27;99670.28;4991406;28;20212;-58
2022/01/20 12:19:10;;;;;;;21.60;8.53;;;;;;;3.02;97.04;99676.03;4991172;28;20197;-58
2022/01/20 12:21:46;;;;;;;22.10;9.43;;;;;;;3.05;96.76;99672.44;4990504;28;20229;-59
2022/01/20 12:24:13;;;;;;;32.73;11.70;;;;;;;3.09;96.72;99674.81;4990854;28;20200;-59
2022/01/20 12:26:40;;;;;;;21.07;9.03;;;;;;;3.20;95.46;99673.41;4989840;28;20773;-59
2022/01/20 12:29:09;;;;;;;25.67;10.30;;;;;;;3.30;95.63;99677.19;4988799;28;20185;-58
2022/01/20 12:31:46;;;;;;;20.37;9.70;;;;;;;3.30;95.28;99668.63;4990438;28;20200;-59
2022/01/20 12:34:13;;;;;;;21.47;8.87;;;;;;;3.32;96.17;99667.63;4990175;28;20200;-59
2022/01/20 12:36:41;;;;;;;23.83;9.77;;;;;;;3.33;95.27;99656.41;4990746;28;20693;-59
2022/01/20 12:39:08;;;;;;;21.13;8.53;;;;;;;3.26;95.97;99655.03;4990915;28;20189;-60
2022/01/20 12:41:35;;;;;;;22.33;9.10;;;;;;;3.24;96.73;99656.88;4990537;28;20788;-61
2022/01/20 12:44:05;;;;;;;24.03;8.33;;;;;;;3.18;96.28;99660.59;4991023;28;20193;-59